createdAt,value
2022-07-31T00:02:08.790Z,1.30
2022-07-31T00:04:36.159Z,1.67
2022-07-31T00:07:04.146Z,1.40
2022-07-31T00:09:53.140Z,1.47
2022-07-31T00:12:19.042Z,1.33
2022-07-31T00:14:46.382Z,1.30
2022-07-31T00:17:13.689Z,1.40
2022-07-31T00:19:41.734Z,1.37
2022-07-31T00:22:10.926Z,1.20
2022-07-31T00:24:39.296Z,1.30
2022-07-31T00:27:06.847Z,1.47
2022-07-31T00:29:34.302Z,1.20
2022-07-31T00:32:01.620Z,1.60
2022-07-31T00:34:28.961Z,1.40
2022-07-31T00:36:56.319Z,1.20
2022-07-31T00:39:24.199Z,1.20
2022-07-31T00:41:51.616Z,1.10
2022-07-31T00:44:18.927Z,1.20
2022-07-31T00:46:46.236Z,1.27
2022-07-31T00:49:13.696Z,1.23
2022-07-31T00:51:41.784Z,1.30
2022-07-31T00:54:10.444Z,1.40
2022-07-31T00:56:44.896Z,1.20
2022-07-31T00:59:12.463Z,1.20
2022-07-31T01:01:39.903Z,1.47
2022-07-31T01:04:07.362Z,1.20
2022-07-31T01:06:43.028Z,1.20
2022-07-31T01:09:10.323Z,1.00
2022-07-31T01:11:53.687Z,1.20
2022-07-31T01:14:22.651Z,1.00
2022-07-31T01:16:52.165Z,1.27
2022-07-31T01:19:39.510Z,1.20
2022-07-31T01:22:32.976Z,1.23
2022-07-31T01:25:17.632Z,1.17
2022-07-31T01:28:01.927Z,1.23
2022-07-31T01:30:34.384Z,1.37
2022-07-31T01:33:08.894Z,1.13
2022-07-31T01:35:40.915Z,1.30
2022-07-31T01:38:10.893Z,1.53
2022-07-31T01:40:46.799Z,1.10
2022-07-31T01:43:22.359Z,1.17
2022-07-31T01:45:54.823Z,1.23
2022-07-31T01:48:22.863Z,1.20
2022-07-31T01:50:52.565Z,1.13
2022-07-31T01:53:22.119Z,1.27
2022-07-31T01:55:56.365Z,1.30
2022-07-31T01:58:42.187Z,1.43
2022-07-31T02:01:29.414Z,1.30
2022-07-31T02:04:00.579Z,1.43
2022-07-31T02:06:29.056Z,1.40
2022-07-31T02:08:57.174Z,1.30
2022-07-31T02:11:25.172Z,1.20
2022-07-31T02:13:53.399Z,1.37
2022-07-31T02:16:22.678Z,1.20
2022-07-31T02:18:56.567Z,1.57
2022-07-31T02:21:27.408Z,1.43
2022-07-31T02:23:54.788Z,1.40
2022-07-31T02:26:22.648Z,1.50
2022-07-31T02:28:52.376Z,1.50
2022-07-31T02:31:22.293Z,1.30
2022-07-31T02:33:50.089Z,1.33
2022-07-31T02:36:18.202Z,1.77
2022-07-31T02:38:45.903Z,1.57
2022-07-31T02:41:13.592Z,1.30
2022-07-31T02:43:41.435Z,1.10
2022-07-31T02:46:21.179Z,1.50
2022-07-31T02:48:49.546Z,1.37
2022-07-31T02:51:18.449Z,1.33
2022-07-31T02:53:46.692Z,1.40
2022-07-31T02:56:15.635Z,1.40
2022-07-31T02:58:43.203Z,1.80
2022-07-31T03:01:23.719Z,1.27
2022-07-31T03:03:51.286Z,1.20
2022-07-31T03:06:19.005Z,1.10
2022-07-31T03:08:46.383Z,1.47
2022-07-31T03:11:18.604Z,1.20
2022-07-31T03:13:48.345Z,1.40
2022-07-31T03:16:16.457Z,1.40
2022-07-31T03:18:44.297Z,1.50
2022-07-31T03:21:12.009Z,1.27
2022-07-31T03:23:39.806Z,1.53
2022-07-31T03:26:11.349Z,1.40
2022-07-31T03:28:39.673Z,1.50
2022-07-31T03:31:07.991Z,1.37
2022-07-31T03:33:36.555Z,1.40
2022-07-31T03:36:04.508Z,1.20
2022-07-31T03:38:42.372Z,1.70
2022-07-31T03:41:17.388Z,1.40
2022-07-31T03:43:47.853Z,1.27
2022-07-31T03:46:19.289Z,1.40
2022-07-31T03:48:47.098Z,1.33
2022-07-31T03:51:15.033Z,1.30
2022-07-31T03:53:43.210Z,1.40
2022-07-31T03:56:17.919Z,1.20
2022-07-31T03:58:47.998Z,1.57
2022-07-31T04:01:20.685Z,1.40
2022-07-31T04:03:48.909Z,1.40
2022-07-31T04:06:20.232Z,1.20
2022-07-31T04:08:47.571Z,1.40
2022-07-31T04:11:15.356Z,1.30
2022-07-31T04:13:43.161Z,1.30
2022-07-31T04:16:10.492Z,1.33
2022-07-31T04:18:37.810Z,1.20
2022-07-31T04:21:05.262Z,1.40
2022-07-31T04:23:32.893Z,1.03
2022-07-31T04:26:20.130Z,1.30
2022-07-31T04:29:03.222Z,1.20
2022-07-31T04:31:30.634Z,1.73
2022-07-31T04:33:58.671Z,1.13
2022-07-31T04:36:29.629Z,1.30
2022-07-31T04:38:59.891Z,1.30
2022-07-31T04:41:27.700Z,1.40
2022-07-31T04:43:55.275Z,1.30
2022-07-31T04:46:22.739Z,1.40
2022-07-31T04:48:50.425Z,1.03
2022-07-31T04:51:21.526Z,1.07
2022-07-31T04:53:52.866Z,1.20
2022-07-31T04:56:34.157Z,1.30
2022-07-31T04:59:02.419Z,1.10
2022-07-31T05:01:30.514Z,1.53
2022-07-31T05:03:58.113Z,1.17
2022-07-31T05:06:33.579Z,1.17
2022-07-31T05:09:03.342Z,1.17
2022-07-31T05:11:35.689Z,1.33
2022-07-31T05:14:04.559Z,1.20
2022-07-31T05:16:32.383Z,1.20
2022-07-31T05:19:00.618Z,1.20
2022-07-31T05:21:53.562Z,1.80
2022-07-31T05:24:34.311Z,1.67
2022-07-31T05:27:13.607Z,1.00
2022-07-31T05:29:42.813Z,1.17
2022-07-31T05:32:11.064Z,1.10
2022-07-31T05:34:38.617Z,1.00
2022-07-31T05:37:06.000Z,0.97
2022-07-31T05:39:36.482Z,1.27
2022-07-31T05:42:22.751Z,1.70
2022-07-31T05:45:08.744Z,1.30
2022-07-31T05:47:40.218Z,1.30
2022-07-31T05:50:09.319Z,1.77
2022-07-31T05:52:36.633Z,1.70
2022-07-31T05:55:30.275Z,1.50
2022-07-31T05:58:23.748Z,1.50
2022-07-31T06:00:51.185Z,1.30
2022-07-31T06:03:23.716Z,1.30
2022-07-31T06:06:06.622Z,1.10
2022-07-31T06:08:34.749Z,1.30
2022-07-31T06:11:02.456Z,1.90
2022-07-31T06:13:30.277Z,1.57
2022-07-31T06:16:03.231Z,1.73
2022-07-31T06:18:30.645Z,1.83
2022-07-31T06:20:57.992Z,1.63
2022-07-31T06:23:32.120Z,1.63
2022-07-31T06:26:16.270Z,1.97
2022-07-31T06:28:48.599Z,1.20
2022-07-31T06:31:21.818Z,1.50
2022-07-31T06:33:51.458Z,1.57
2022-07-31T06:36:22.791Z,1.87
2022-07-31T06:39:01.547Z,1.50
2022-07-31T06:41:47.590Z,2.00
2022-07-31T06:44:31.163Z,1.67
2022-07-31T06:47:20.639Z,1.57
2022-07-31T06:49:57.037Z,1.47
2022-07-31T06:52:27.794Z,1.40
2022-07-31T06:54:55.791Z,1.67
2022-07-31T06:57:23.214Z,1.23
2022-07-31T06:59:50.780Z,1.30
2022-07-31T07:02:18.779Z,1.60
2022-07-31T07:04:56.502Z,1.47
2022-07-31T07:07:35.159Z,1.40
2022-07-31T07:10:02.594Z,1.30
2022-07-31T07:12:56.054Z,1.80
2022-07-31T07:15:23.671Z,2.23
2022-07-31T07:17:51.731Z,2.20
2022-07-31T07:20:33.038Z,2.10
2022-07-31T07:23:00.367Z,1.70
2022-07-31T07:25:46.310Z,2.13
2022-07-31T07:28:15.376Z,1.30
2022-07-31T07:30:58.263Z,1.60
2022-07-31T07:33:40.698Z,1.50
2022-07-31T07:36:24.256Z,1.70
2022-07-31T07:39:09.249Z,1.83
2022-07-31T07:41:38.557Z,2.23
2022-07-31T07:44:07.252Z,2.23
2022-07-31T07:46:34.973Z,1.70
2022-07-31T07:49:04.856Z,1.20
2022-07-31T07:51:59.041Z,2.27
2022-07-31T07:54:39.078Z,2.53
2022-07-31T07:57:21.938Z,2.37
2022-07-31T08:00:27.267Z,1.60
2022-07-31T08:03:47.108Z,2.20
2022-07-31T08:05:47.702Z,2.53
2022-07-31T08:08:15.063Z,2.43
2022-07-31T08:10:48.476Z,2.77
2022-07-31T08:13:40.657Z,2.07
2022-07-31T08:16:08.347Z,2.10
2022-07-31T08:18:48.834Z,3.47
2022-07-31T08:21:17.134Z,2.20
2022-07-31T08:23:44.507Z,2.10
2022-07-31T08:26:13.117Z,2.60
2022-07-31T08:28:41.845Z,2.60
2022-07-31T08:31:17.725Z,3.07
2022-07-31T08:33:59.055Z,3.50
2022-07-31T08:36:26.802Z,2.40
2022-07-31T08:38:54.149Z,2.43
2022-07-31T08:41:40.691Z,2.73
2022-07-31T08:44:10.361Z,2.30
2022-07-31T08:46:38.554Z,3.27
2022-07-31T08:49:06.869Z,3.30
2022-07-31T08:51:50.911Z,2.83
2022-07-31T08:54:47.043Z,2.97
2022-07-31T08:57:14.593Z,3.13
2022-07-31T08:59:42.975Z,3.20
2022-07-31T09:02:11.085Z,2.43
2022-07-31T09:04:52.427Z,2.33
2022-07-31T09:07:21.347Z,3.93
2022-07-31T09:09:51.583Z,3.10
2022-07-31T09:12:33.970Z,3.43
2022-07-31T09:15:05.801Z,3.20
2022-07-31T09:17:34.303Z,3.07
2022-07-31T09:20:01.995Z,2.67
2022-07-31T09:22:33.936Z,3.07
2022-07-31T09:25:08.701Z,2.93
2022-07-31T09:27:36.261Z,2.67
2022-07-31T09:30:04.546Z,2.70
2022-07-31T09:32:52.166Z,3.03
2022-07-31T09:35:52.444Z,2.67
2022-07-31T09:38:20.656Z,2.30
2022-07-31T09:41:56.314Z,2.07
2022-07-31T09:44:09.944Z,3.60
2022-07-31T09:46:42.681Z,2.80
2022-07-31T09:49:10.541Z,2.20
2022-07-31T09:51:43.802Z,3.10
2022-07-31T09:54:22.263Z,2.60
2022-07-31T09:57:12.456Z,2.13
2022-07-31T09:59:46.566Z,2.10
2022-07-31T10:02:16.026Z,2.13
2022-07-31T10:04:47.771Z,2.03
2022-07-31T10:07:31.510Z,2.30
2022-07-31T10:10:03.050Z,2.50
2022-07-31T10:12:47.552Z,2.37
2022-07-31T10:15:17.431Z,2.20
2022-07-31T10:17:49.947Z,2.30
2022-07-31T10:20:44.884Z,1.83
2022-07-31T10:23:30.427Z,2.17
2022-07-31T10:26:02.381Z,2.47
2022-07-31T10:28:29.966Z,2.20
2022-07-31T10:30:58.608Z,2.70
2022-07-31T10:33:44.498Z,2.33
2022-07-31T10:36:42.947Z,2.00
2022-07-31T10:39:39.560Z,2.47
2022-07-31T10:42:31.196Z,2.43
2022-07-31T10:45:05.182Z,2.10
2022-07-31T10:47:48.059Z,2.30
2022-07-31T10:50:42.743Z,2.40
2022-07-31T10:53:50.372Z,2.33
2022-07-31T10:56:44.029Z,2.67
2022-07-31T10:59:30.939Z,2.50
2022-07-31T11:02:10.997Z,1.87
2022-07-31T11:05:13.932Z,2.33
2022-07-31T11:08:00.942Z,2.50
2022-07-31T11:10:55.847Z,2.50
2022-07-31T11:13:45.568Z,2.47
2022-07-31T11:16:36.019Z,1.97
2022-07-31T11:19:41.225Z,2.23
2022-07-31T11:22:30.794Z,2.20
2022-07-31T11:25:00.593Z,2.20
2022-07-31T11:27:34.712Z,2.13
2022-07-31T11:30:10.618Z,2.30
2022-07-31T11:32:40.945Z,2.30
2022-07-31T11:35:09.055Z,2.50
2022-07-31T11:37:56.314Z,2.20
2022-07-31T11:40:26.525Z,2.20
2022-07-31T11:43:24.340Z,2.20
2022-07-31T11:45:46.933Z,2.60
2022-07-31T11:48:16.432Z,2.10
2022-07-31T11:50:47.763Z,2.27
2022-07-31T11:53:15.501Z,2.20
2022-07-31T11:55:48.906Z,2.10
2022-07-31T11:58:16.770Z,2.20
2022-07-31T12:00:47.857Z,2.37
2022-07-31T12:03:16.610Z,2.30
2022-07-31T12:05:52.334Z,2.37
2022-07-31T12:08:20.229Z,2.73
2022-07-31T12:10:47.807Z,2.03
2022-07-31T12:13:19.649Z,1.97
2022-07-31T12:16:13.055Z,2.17
2022-07-31T12:18:48.024Z,1.90
2022-07-31T12:21:15.840Z,2.40
2022-07-31T12:23:44.181Z,2.27
2022-07-31T12:26:13.557Z,2.20
2022-07-31T12:28:41.146Z,2.17
2022-07-31T12:31:09.082Z,2.20
2022-07-31T12:33:43.458Z,1.93
2022-07-31T12:36:14.783Z,2.07
2022-07-31T12:38:45.425Z,2.00
2022-07-31T12:41:15.983Z,2.40
2022-07-31T12:43:51.156Z,2.23
2022-07-31T12:46:21.042Z,2.40
2022-07-31T12:48:48.384Z,2.23
2022-07-31T12:51:17.720Z,2.07
2022-07-31T12:53:45.037Z,2.20
2022-07-31T12:56:13.057Z,1.90
2022-07-31T12:58:40.485Z,1.80
2022-07-31T13:01:07.837Z,2.00
2022-07-31T13:03:45.506Z,2.30
2022-07-31T13:06:14.522Z,2.30
2022-07-31T13:08:43.868Z,2.10
2022-07-31T13:11:11.565Z,1.73
2022-07-31T13:13:38.896Z,2.00
2022-07-31T13:16:06.334Z,2.07
2022-07-31T13:18:35.643Z,2.13
2022-07-31T13:21:03.000Z,2.00
2022-07-31T13:23:30.441Z,2.60
2022-07-31T13:25:58.831Z,1.83
2022-07-31T13:28:26.408Z,1.73
2022-07-31T13:30:55.326Z,1.87
2022-07-31T13:33:22.806Z,1.97
2022-07-31T13:35:50.147Z,1.80
2022-07-31T13:38:18.086Z,1.90
2022-07-31T13:41:03.904Z,2.17
2022-07-31T13:43:31.284Z,1.60
2022-07-31T13:45:58.824Z,1.83
2022-07-31T13:48:26.274Z,1.90
2022-07-31T13:50:53.628Z,1.93
2022-07-31T13:53:21.068Z,1.80
2022-07-31T13:55:50.194Z,1.73
2022-07-31T13:58:17.790Z,1.87
2022-07-31T14:00:45.169Z,1.80
2022-07-31T14:03:13.045Z,2.07
2022-07-31T14:05:44.395Z,1.80
2022-07-31T14:08:30.171Z,2.00
2022-07-31T14:10:59.116Z,2.00
2022-07-31T14:13:26.885Z,1.90
2022-07-31T14:15:54.201Z,1.90
2022-07-31T14:18:23.194Z,1.93
2022-07-31T14:20:50.864Z,1.70
2022-07-31T14:23:18.471Z,1.97
2022-07-31T14:25:45.823Z,1.60
2022-07-31T14:28:13.161Z,2.03
2022-07-31T14:30:46.065Z,2.03
2022-07-31T14:33:14.459Z,2.00
2022-07-31T14:35:42.441Z,2.30
2022-07-31T14:38:09.875Z,1.93
2022-07-31T14:40:37.332Z,1.93
2022-07-31T14:43:04.683Z,2.33
2022-07-31T14:45:32.138Z,1.70
2022-07-31T14:48:07.056Z,1.80
2022-07-31T14:50:34.406Z,1.97
2022-07-31T14:53:01.694Z,1.63
2022-07-31T14:55:29.088Z,2.10
2022-07-31T14:57:56.410Z,1.63
2022-07-31T15:00:23.788Z,1.73
2022-07-31T15:02:51.130Z,2.10
2022-07-31T15:06:41.705Z,2.33
2022-07-31T15:08:06.215Z,1.83
2022-07-31T15:10:33.671Z,1.60
2022-07-31T15:13:01.103Z,2.10
2022-07-31T15:15:28.733Z,1.80
2022-07-31T15:17:58.295Z,1.90
2022-07-31T15:20:28.795Z,1.60
2022-07-31T15:23:00.283Z,1.50
2022-07-31T15:25:27.676Z,2.23
2022-07-31T15:27:54.986Z,2.13
2022-07-31T15:30:23.106Z,2.07
2022-07-31T15:32:52.402Z,1.90
2022-07-31T15:35:19.748Z,2.20
2022-07-31T15:37:47.203Z,2.10
2022-07-31T15:40:15.666Z,1.80
2022-07-31T15:42:44.017Z,2.20
2022-07-31T15:45:15.857Z,2.10
2022-07-31T15:47:43.524Z,2.23
2022-07-31T15:50:11.853Z,1.90
2022-07-31T15:52:39.445Z,2.10
2022-07-31T15:55:07.342Z,1.93
2022-07-31T15:57:34.663Z,1.70
2022-07-31T16:00:01.989Z,1.83
2022-07-31T16:02:38.507Z,2.30
2022-07-31T16:05:11.410Z,1.60
2022-07-31T16:08:31.105Z,1.60
2022-07-31T16:10:27.209Z,1.90
2022-07-31T16:12:54.535Z,1.97
2022-07-31T16:15:21.899Z,2.00
2022-07-31T16:17:49.250Z,1.80
2022-07-31T16:20:25.593Z,1.73
2022-07-31T16:22:58.686Z,1.83
2022-07-31T16:25:26.732Z,1.50
2022-07-31T16:27:54.163Z,2.17
2022-07-31T16:30:22.063Z,1.67
2022-07-31T16:32:49.501Z,1.93
2022-07-31T16:35:16.837Z,1.90
2022-07-31T16:37:51.327Z,2.20
2022-07-31T16:40:28.482Z,1.50
2022-07-31T16:43:49.126Z,1.90
2022-07-31T16:45:54.946Z,1.43
2022-07-31T16:48:22.579Z,2.10
2022-07-31T16:50:53.734Z,1.93
2022-07-31T16:54:10.801Z,2.00
2022-07-31T16:56:13.304Z,1.63
2022-07-31T16:58:40.701Z,1.83
2022-07-31T17:01:56.906Z,2.05
2022-07-31T17:04:01.368Z,2.03
2022-07-31T17:06:35.841Z,1.90
2022-07-31T17:09:15.801Z,1.93
2022-07-31T17:11:49.122Z,1.90
2022-07-31T17:14:17.671Z,2.03
2022-07-31T17:16:47.879Z,1.77
2022-07-31T17:19:41.882Z,2.33
2022-07-31T17:22:07.546Z,1.90
2022-07-31T17:24:36.989Z,2.00
2022-07-31T17:27:05.663Z,1.77
2022-07-31T17:29:33.217Z,1.70
2022-07-31T17:32:00.584Z,1.90
2022-07-31T17:34:27.927Z,1.63
2022-07-31T17:36:55.961Z,1.80
2022-07-31T17:39:26.169Z,1.93
2022-07-31T17:41:57.593Z,2.03
2022-07-31T17:44:25.003Z,1.77
2022-07-31T17:46:53.362Z,1.70
2022-07-31T17:49:20.997Z,2.13
2022-07-31T17:51:57.684Z,1.80
2022-07-31T17:54:26.948Z,1.83
2022-07-31T17:56:55.229Z,1.70
2022-07-31T17:59:23.218Z,2.40
2022-07-31T18:01:52.241Z,1.70
2022-07-31T18:04:21.226Z,2.03
2022-07-31T18:06:54.505Z,1.80
2022-07-31T18:09:23.326Z,1.80
2022-07-31T18:11:51.688Z,1.90
2022-07-31T18:14:19.267Z,1.57
2022-07-31T18:16:47.653Z,2.03
2022-07-31T18:19:15.284Z,2.10
2022-07-31T18:21:42.972Z,2.23
2022-07-31T18:24:10.281Z,2.33
2022-07-31T18:26:37.656Z,1.97
2022-07-31T18:29:05.484Z,2.27
2022-07-31T18:31:35.467Z,2.10
2022-07-31T18:34:06.995Z,2.20
2022-07-31T18:36:35.025Z,2.20
2022-07-31T18:39:02.733Z,1.90
2022-07-31T18:41:30.099Z,2.17
2022-07-31T18:43:57.786Z,1.73
2022-07-31T18:46:25.526Z,2.10
2022-07-31T18:48:55.952Z,2.37
2022-07-31T18:51:24.516Z,1.87
2022-07-31T18:53:54.474Z,1.77
2022-07-31T18:56:23.191Z,1.90
2022-07-31T18:58:50.494Z,1.70
2022-07-31T19:01:17.838Z,1.77
2022-07-31T19:03:45.235Z,2.20
2022-07-31T19:06:12.713Z,1.97
2022-07-31T19:08:40.092Z,1.90
2022-07-31T19:11:07.554Z,1.73
2022-07-31T19:13:35.054Z,1.63
2022-07-31T19:16:02.364Z,1.60
2022-07-31T19:18:29.679Z,1.50
2022-07-31T19:21:23.206Z,1.57
2022-07-31T19:23:45.131Z,1.63
2022-07-31T19:26:12.734Z,1.90
2022-07-31T19:28:42.991Z,1.70
2022-07-31T19:31:11.187Z,1.90
2022-07-31T19:33:38.477Z,1.70
2022-07-31T19:36:06.144Z,1.43
2022-07-31T19:38:35.788Z,1.77
2022-07-31T19:41:03.816Z,1.83
2022-07-31T19:43:31.501Z,1.93
2022-07-31T19:46:10.346Z,1.90
2022-07-31T19:48:40.828Z,1.30
2022-07-31T19:51:08.300Z,1.43
2022-07-31T19:53:35.722Z,1.40
2022-07-31T19:56:05.722Z,1.50
2022-07-31T19:58:34.630Z,1.53
2022-07-31T20:01:02.579Z,1.57
2022-07-31T20:03:29.993Z,1.60
2022-07-31T20:05:58.211Z,1.30
2022-07-31T20:08:25.527Z,1.60
2022-07-31T20:10:53.193Z,1.83
2022-07-31T20:13:20.625Z,1.83
2022-07-31T20:15:51.435Z,1.60
2022-07-31T20:18:27.712Z,1.63
2022-07-31T20:20:58.373Z,1.67
2022-07-31T20:23:26.187Z,1.70
2022-07-31T20:25:53.720Z,1.60
2022-07-31T20:28:21.528Z,1.60
2022-07-31T20:30:49.080Z,1.73
2022-07-31T20:33:16.399Z,1.70
2022-07-31T20:35:48.554Z,1.67
2022-07-31T20:38:23.795Z,1.70
2022-07-31T20:40:54.694Z,1.40
2022-07-31T20:43:23.884Z,1.77
2022-07-31T20:45:51.428Z,1.60
2022-07-31T20:48:18.896Z,1.40
2022-07-31T20:50:47.799Z,1.53
2022-07-31T20:53:16.145Z,1.50
2022-07-31T20:55:49.260Z,1.57
2022-07-31T20:58:17.497Z,1.40
2022-07-31T21:00:45.479Z,1.53
2022-07-31T21:03:12.899Z,1.47
2022-07-31T21:05:40.225Z,1.57
2022-07-31T21:08:07.670Z,1.20
2022-07-31T21:10:35.533Z,1.50
2022-07-31T21:13:02.861Z,1.60
2022-07-31T21:15:42.926Z,1.23
2022-07-31T21:18:15.982Z,1.47
2022-07-31T21:20:52.113Z,1.30
2022-07-31T21:23:22.027Z,1.40
2022-07-31T21:25:49.442Z,1.30
2022-07-31T21:28:16.861Z,1.27
2022-07-31T21:30:44.285Z,1.30
2022-07-31T21:33:11.858Z,1.33
2022-07-31T21:35:40.203Z,1.23
2022-07-31T21:38:12.621Z,1.20
2022-07-31T21:40:40.600Z,1.47
2022-07-31T21:43:08.526Z,1.20
2022-07-31T21:45:49.607Z,1.37
2022-07-31T21:48:23.040Z,1.30
2022-07-31T21:50:50.474Z,1.47
2022-07-31T21:53:17.859Z,1.40
2022-07-31T21:55:45.157Z,1.50
2022-07-31T21:58:12.581Z,1.30
2022-07-31T22:00:40.021Z,1.40
2022-07-31T22:03:07.384Z,1.50
2022-07-31T22:05:53.369Z,1.63
2022-07-31T22:08:20.876Z,1.23
2022-07-31T22:10:49.930Z,1.40
2022-07-31T22:13:17.410Z,1.00
2022-07-31T22:15:59.090Z,1.30
2022-07-31T22:18:32.276Z,1.33
2022-07-31T22:21:00.428Z,1.20
2022-07-31T22:23:28.582Z,1.10
2022-07-31T22:25:56.145Z,1.57
2022-07-31T22:28:24.157Z,1.30
2022-07-31T22:30:52.210Z,1.20
2022-07-31T22:33:19.986Z,1.03
2022-07-31T22:35:59.615Z,1.53
2022-07-31T22:38:27.898Z,1.50
2022-07-31T22:40:55.268Z,1.70
2022-07-31T22:43:47.419Z,1.50
2022-07-31T22:46:11.898Z,1.57
2022-07-31T22:48:40.813Z,1.27
2022-07-31T22:51:12.809Z,1.10
2022-07-31T22:53:42.620Z,1.40
2022-07-31T22:56:09.951Z,1.47
2022-07-31T22:58:37.332Z,1.70
2022-07-31T23:01:04.701Z,1.10
2022-07-31T23:03:32.144Z,1.57
2022-07-31T23:06:02.926Z,1.10
2022-07-31T23:08:50.592Z,1.10
2022-07-31T23:11:21.703Z,1.17
2022-07-31T23:13:49.016Z,1.30
2022-07-31T23:16:16.408Z,1.43
2022-07-31T23:18:43.743Z,1.23
2022-07-31T23:21:11.160Z,1.30
2022-07-31T23:23:38.884Z,1.13
2022-07-31T23:26:06.284Z,1.07
2022-07-31T23:28:33.885Z,1.20
2022-07-31T23:31:01.220Z,1.17
2022-07-31T23:33:28.537Z,1.33
2022-07-31T23:35:55.864Z,1.10
2022-07-31T23:38:23.246Z,1.10
2022-07-31T23:40:56.051Z,1.20
2022-07-31T23:43:23.887Z,1.10
2022-07-31T23:45:51.307Z,1.13
2022-07-31T23:48:19.566Z,1.13
2022-07-31T23:50:48.182Z,1.10
2022-07-31T23:53:16.365Z,1.03
2022-07-31T23:55:43.695Z,1.00
2022-07-31T23:58:11.137Z,0.90
